createdAt,value
2023-05-09T00:02:19.317Z,101174.91
2023-05-09T00:04:53.108Z,101174.53
2023-05-09T00:07:29.187Z,101173.72
2023-05-09T00:10:05.096Z,101165.59
2023-05-09T00:12:47.368Z,101168.88
2023-05-09T00:15:17.590Z,101179.38
2023-05-09T00:17:56.814Z,101174.91
2023-05-09T00:20:35.253Z,101164.38
2023-05-09T00:23:11.248Z,101166.41
2023-05-09T00:25:46.825Z,101172.47
2023-05-09T00:28:20.107Z,101173.69
2023-05-09T00:31:00.262Z,101170.47
2023-05-09T00:33:38.013Z,101164.78
2023-05-09T00:36:21.669Z,101166.00
2023-05-09T00:38:52.217Z,101163.16
2023-05-09T00:41:23.117Z,101165.22
2023-05-09T00:43:50.761Z,101166.03
2023-05-09T00:46:23.903Z,101166.41
2023-05-09T00:49:02.320Z,101162.78
2023-05-09T00:51:36.687Z,101157.53
2023-05-09T00:54:09.282Z,101149.44
2023-05-09T00:56:47.549Z,101149.84
2023-05-09T00:59:20.942Z,101147.81
2023-05-09T01:01:49.878Z,101151.44
2023-05-09T01:04:23.167Z,101139.78
2023-05-09T01:07:09.596Z,101131.66
2023-05-09T01:10:24.230Z,101138.97
2023-05-09T01:13:06.039Z,101128.44
2023-05-09T01:16:15.568Z,101126.44
2023-05-09T01:19:02.289Z,101136.16
2023-05-09T01:21:43.827Z,101132.53
2023-05-09T01:24:50.361Z,101132.50
2023-05-09T01:27:37.456Z,101140.22
2023-05-09T01:30:12.831Z,101136.13
2023-05-09T01:32:44.134Z,101143.81
2023-05-09T01:35:26.371Z,101135.69
2023-05-09T01:37:59.733Z,101145.78
2023-05-09T01:40:33.807Z,101145.38
2023-05-09T01:43:10.097Z,101148.22
2023-05-09T01:45:40.826Z,101144.97
2023-05-09T01:48:14.752Z,101140.91
2023-05-09T01:50:46.541Z,101141.34
2023-05-09T01:53:30.845Z,101141.66
2023-05-09T01:56:07.977Z,101136.47
2023-05-09T01:58:48.419Z,101139.66
2023-05-09T02:01:24.197Z,101139.63
2023-05-09T02:04:00.518Z,101146.09
2023-05-09T02:06:35.541Z,101137.19
2023-05-09T02:09:06.759Z,101140.41
2023-05-09T02:11:42.636Z,101133.16
2023-05-09T02:14:18.963Z,101128.66
2023-05-09T02:16:54.969Z,101124.94
2023-05-09T02:19:33.600Z,101123.31
2023-05-09T02:22:06.256Z,101123.31
2023-05-09T02:24:43.300Z,101115.19
2023-05-09T02:27:18.335Z,101110.75
2023-05-09T02:29:58.405Z,101112.38
2023-05-09T02:32:36.088Z,101114.34
2023-05-09T02:35:20.274Z,101117.56
2023-05-09T02:37:54.050Z,101118.41
2023-05-09T02:40:30.884Z,101121.59
2023-05-09T02:43:04.683Z,101119.13
2023-05-09T02:45:40.719Z,101117.19
2023-05-09T02:48:23.625Z,101122.47
2023-05-09T02:50:54.288Z,101124.00
2023-05-09T02:53:32.681Z,101118.75
2023-05-09T02:56:04.208Z,101113.88
2023-05-09T02:58:40.369Z,101109.03
2023-05-09T03:01:16.246Z,101115.91
2023-05-09T03:03:54.613Z,101110.63
2023-05-09T03:06:25.768Z,101121.16
2023-05-09T03:09:02.272Z,101111.47
2023-05-09T03:11:37.049Z,101115.09
2023-05-09T03:14:13.316Z,101108.22
2023-05-09T03:16:52.356Z,101105.00
2023-05-09T03:19:34.076Z,101105.81
2023-05-09T03:22:07.303Z,101109.03
2023-05-09T03:24:45.247Z,101104.63
2023-05-09T03:27:26.216Z,101108.63
2023-05-09T03:30:02.270Z,101108.63
2023-05-09T03:32:31.263Z,101101.75
2023-05-09T03:35:07.349Z,101105.41
2023-05-09T03:37:43.189Z,101113.09
2023-05-09T03:40:11.835Z,101106.22
2023-05-09T03:42:58.284Z,101107.09
2023-05-09T03:45:36.137Z,101111.13
2023-05-09T03:48:12.705Z,101105.09
2023-05-09T03:50:58.112Z,101113.56
2023-05-09T03:53:36.999Z,101112.34
2023-05-09T03:56:10.094Z,101120.03
2023-05-09T03:58:49.771Z,101125.72
2023-05-09T04:01:21.788Z,101123.69
2023-05-09T04:03:58.523Z,101124.91
2023-05-09T04:06:36.248Z,101119.25
2023-05-09T04:09:11.589Z,101132.16
2023-05-09T04:11:53.694Z,101129.31
2023-05-09T04:14:24.539Z,101127.69
2023-05-09T04:16:53.090Z,101124.09
2023-05-09T04:19:26.606Z,101129.75
2023-05-09T04:22:02.845Z,101133.78
2023-05-09T04:24:39.565Z,101127.72
2023-05-09T04:27:18.452Z,101125.69
2023-05-09T04:29:55.146Z,101127.69
2023-05-09T04:32:27.066Z,101124.44
2023-05-09T04:35:03.824Z,101128.97
2023-05-09T04:37:44.838Z,101126.94
2023-05-09T04:40:20.007Z,101121.25
2023-05-09T04:42:57.851Z,101123.66
2023-05-09T04:45:37.079Z,101117.63
2023-05-09T04:48:12.841Z,101110.31
2023-05-09T04:50:49.260Z,101122.50
2023-05-09T04:53:31.282Z,101124.91
2023-05-09T04:56:04.813Z,101124.09
2023-05-09T04:58:39.444Z,101124.50
2023-05-09T05:01:21.102Z,101128.09
2023-05-09T05:03:49.304Z,101126.06
2023-05-09T05:06:17.129Z,101130.13
2023-05-09T05:08:50.221Z,101129.28
2023-05-09T05:11:29.944Z,101134.97
2023-05-09T05:14:06.496Z,101138.63
2023-05-09T05:16:43.999Z,101139.84
2023-05-09T05:19:20.180Z,101139.03
2023-05-09T05:21:59.272Z,101138.25
2023-05-09T05:24:33.148Z,101142.28
2023-05-09T05:27:12.940Z,101141.09
2023-05-09T05:29:52.155Z,101141.06
2023-05-09T05:32:20.275Z,101136.19
2023-05-09T05:34:57.408Z,101136.97
2023-05-09T05:37:39.010Z,101140.63
2023-05-09T05:40:21.801Z,101136.97
2023-05-09T05:42:56.536Z,101149.47
2023-05-09T05:45:32.884Z,101154.78
2023-05-09T05:48:18.498Z,101156.78
2023-05-09T05:50:55.468Z,101153.97
2023-05-09T05:53:27.521Z,101155.59
2023-05-09T05:56:02.004Z,101156.38
2023-05-09T05:58:37.818Z,101157.19
2023-05-09T06:01:14.029Z,101156.78
2023-05-09T06:04:00.196Z,101154.34
2023-05-09T06:06:36.031Z,101158.38
2023-05-09T06:09:17.917Z,101145.06
2023-05-09T06:11:59.367Z,101147.91
2023-05-09T06:14:42.166Z,101145.94
2023-05-09T06:17:16.654Z,101148.81
2023-05-09T06:19:50.564Z,101152.56
2023-05-09T06:22:24.725Z,101155.03
2023-05-09T06:24:57.566Z,101144.53
2023-05-09T06:27:41.074Z,101144.53
2023-05-09T06:30:24.651Z,101150.28
2023-05-09T06:32:58.333Z,101152.66
2023-05-09T06:35:37.163Z,101147.78
2023-05-09T06:38:10.955Z,101151.03
2023-05-09T06:40:53.365Z,101152.66
2023-05-09T06:43:32.442Z,101149.50
2023-05-09T06:46:16.902Z,101141.38
2023-05-09T06:48:55.813Z,101134.94
2023-05-09T06:51:35.018Z,101126.53
2023-05-09T06:54:17.083Z,101128.19
2023-05-09T06:56:51.206Z,101137.91
2023-05-09T06:59:28.918Z,101130.66
2023-05-09T07:02:06.132Z,101124.19
2023-05-09T07:04:47.729Z,101129.06
2023-05-09T07:07:25.269Z,101117.34
2023-05-09T07:10:10.706Z,101124.66
2023-05-09T07:12:50.796Z,101126.25
2023-05-09T07:15:40.425Z,101123.03
2023-05-09T07:18:17.607Z,101121.41
2023-05-09T07:20:46.113Z,101120.16
2023-05-09T07:23:14.653Z,101117.34
2023-05-09T07:25:45.520Z,101118.16
2023-05-09T07:28:19.262Z,101117.38
2023-05-09T07:30:58.105Z,101123.44
2023-05-09T07:33:31.366Z,101121.00
2023-05-09T07:36:00.788Z,101111.28
2023-05-09T07:38:29.646Z,101114.50
2023-05-09T07:40:57.961Z,101106.00
2023-05-09T07:43:34.648Z,101112.47
2023-05-09T07:46:08.369Z,101098.72
2023-05-09T07:48:41.244Z,101101.94
2023-05-09T07:51:09.488Z,101104.38
2023-05-09T07:53:40.772Z,101108.03
2023-05-09T07:56:13.576Z,101102.34
2023-05-09T07:58:51.214Z,101094.66
2023-05-09T08:01:22.571Z,101108.44
2023-05-09T08:03:54.666Z,101112.47
2023-05-09T08:06:29.141Z,101103.97
2023-05-09T08:09:05.353Z,101109.25
2023-05-09T08:11:41.854Z,101110.47
2023-05-09T08:14:15.778Z,101105.19
2023-05-09T08:16:53.240Z,101106.00
2023-05-09T08:19:23.675Z,101106.78
2023-05-09T08:22:03.535Z,101110.47
2023-05-09T08:24:34.596Z,101106.41
2023-05-09T08:27:06.136Z,101096.28
2023-05-09T08:29:41.326Z,101097.09
2023-05-09T08:32:15.022Z,101096.69
2023-05-09T08:34:49.017Z,101088.19
2023-05-09T08:37:20.156Z,101089.00
2023-05-09T08:39:55.832Z,101087.34
2023-05-09T08:42:26.614Z,101089.00
2023-05-09T08:45:03.260Z,101078.47
2023-05-09T08:47:39.378Z,101084.53
2023-05-09T08:50:17.571Z,101073.59
2023-05-09T08:52:51.725Z,101073.16
2023-05-09T08:55:23.342Z,101076.00
2023-05-09T08:58:00.839Z,101071.16
2023-05-09T09:00:34.463Z,101070.34
2023-05-09T09:03:07.713Z,101069.53
2023-05-09T09:05:45.204Z,101070.38
2023-05-09T09:08:21.733Z,101079.66
2023-05-09T09:10:58.664Z,101063.84
2023-05-09T09:13:34.131Z,101059.31
2023-05-09T09:16:08.791Z,101055.69
2023-05-09T09:18:40.091Z,101045.13
2023-05-09T09:21:16.363Z,101060.16
2023-05-09T09:23:51.995Z,101064.22
2023-05-09T09:26:29.355Z,101057.78
2023-05-09T09:29:05.605Z,101057.75
2023-05-09T09:31:42.701Z,101051.69
2023-05-09T09:34:14.561Z,101057.34
2023-05-09T09:36:51.256Z,101054.53
2023-05-09T09:39:22.280Z,101053.28
2023-05-09T09:41:50.579Z,101049.63
2023-05-09T09:44:21.558Z,101048.47
2023-05-09T09:46:53.432Z,101046.44
2023-05-09T09:49:26.150Z,101046.81
2023-05-09T09:51:58.720Z,101046.84
2023-05-09T09:54:32.033Z,101035.50
2023-05-09T09:57:00.481Z,101030.25
2023-05-09T09:59:29.204Z,101034.28
2023-05-09T10:02:13.250Z,101039.13
2023-05-09T10:04:44.164Z,101018.88
2023-05-09T10:07:19.194Z,101031.44
2023-05-09T10:09:55.652Z,101020.50
2023-05-09T10:12:24.205Z,101033.88
2023-05-09T10:14:56.744Z,101022.53
2023-05-09T10:17:32.632Z,101028.59
2023-05-09T10:20:05.074Z,101019.69
2023-05-09T10:22:44.159Z,101020.88
2023-05-09T10:25:22.725Z,101023.72
2023-05-09T10:27:54.147Z,101014.00
2023-05-09T10:30:38.238Z,101017.66
2023-05-09T10:33:16.864Z,101023.34
2023-05-09T10:35:49.597Z,101018.06
2023-05-09T10:38:21.280Z,101020.09
2023-05-09T10:40:53.540Z,101012.81
2023-05-09T10:43:25.317Z,101011.19
2023-05-09T10:45:58.757Z,101009.97
2023-05-09T10:48:29.343Z,101001.84
2023-05-09T10:51:03.624Z,100995.34
2023-05-09T10:53:45.793Z,101004.66
2023-05-09T10:56:33.247Z,101008.72
2023-05-09T10:59:01.448Z,100999.00
2023-05-09T11:01:35.475Z,100998.63
2023-05-09T11:04:16.769Z,100984.00
2023-05-09T11:06:51.651Z,100977.13
2023-05-09T11:09:28.189Z,100968.63
2023-05-09T11:12:12.538Z,100978.31
2023-05-09T11:15:05.410Z,100967.75
2023-05-09T11:17:44.188Z,100964.88
2023-05-09T11:20:19.795Z,100965.28
2023-05-09T11:22:53.505Z,100955.94
2023-05-09T11:25:32.001Z,100958.00
2023-05-09T11:28:12.415Z,100956.78
2023-05-09T11:30:52.034Z,100951.88
2023-05-09T11:33:41.628Z,100941.38
2023-05-09T11:36:32.288Z,100941.78
2023-05-09T11:39:12.337Z,100937.72
2023-05-09T11:41:49.259Z,100939.75
2023-05-09T11:44:35.529Z,100925.50
2023-05-09T11:47:18.399Z,100927.13
2023-05-09T11:49:53.137Z,100926.72
2023-05-09T11:52:32.460Z,100927.13
2023-05-09T11:55:30.378Z,100934.00
2023-05-09T11:57:59.543Z,100930.78
2023-05-09T12:00:27.611Z,100921.94
2023-05-09T12:02:57.809Z,100925.19
2023-05-09T12:05:28.545Z,100926.03
2023-05-09T12:08:04.760Z,100919.97
2023-05-09T12:10:37.565Z,100915.91
2023-05-09T12:13:05.511Z,100905.38
2023-05-09T12:15:43.269Z,100891.94
2023-05-09T12:18:18.361Z,100907.34
2023-05-09T12:20:51.989Z,100899.25
2023-05-09T12:23:20.148Z,100900.03
2023-05-09T12:25:59.131Z,100888.66
2023-05-09T12:28:30.622Z,100893.53
2023-05-09T12:30:59.248Z,100887.91
2023-05-09T12:33:27.519Z,100883.03
2023-05-09T12:36:06.511Z,100867.63
2023-05-09T12:38:39.455Z,100865.97
2023-05-09T12:41:34.983Z,100867.97
2023-05-09T12:44:12.582Z,100861.50
2023-05-09T12:46:43.532Z,100864.34
2023-05-09T12:49:21.860Z,100851.38
2023-05-09T12:51:54.149Z,100854.97
2023-05-09T12:54:29.831Z,100847.28
2023-05-09T12:57:05.736Z,100847.28
2023-05-09T12:59:36.441Z,100845.28
2023-05-09T13:02:06.982Z,100837.97
2023-05-09T13:04:40.048Z,100835.16
2023-05-09T13:07:13.798Z,100834.34
2023-05-09T13:09:57.008Z,100838.38
2023-05-09T13:12:28.190Z,100822.94
2023-05-09T13:15:02.135Z,100822.59
2023-05-09T13:17:33.021Z,100832.69
2023-05-09T13:20:05.727Z,100825.41
2023-05-09T13:22:41.907Z,100813.59
2023-05-09T13:25:19.776Z,100817.19
2023-05-09T13:27:59.841Z,100810.69
2023-05-09T13:30:41.569Z,100802.53
2023-05-09T13:36:01.775Z,100789.97
2023-05-09T13:38:40.912Z,100791.16
2023-05-09T13:41:20.390Z,100784.69
2023-05-09T13:43:59.564Z,100781.47
2023-05-09T13:46:40.712Z,100780.63
2023-05-09T13:49:17.848Z,100783.84
2023-05-09T13:51:54.684Z,100788.69
2023-05-09T13:54:25.890Z,100779.81
2023-05-09T13:57:10.868Z,100774.84
2023-05-09T13:59:41.954Z,100772.06
2023-05-09T14:02:21.696Z,100769.22
2023-05-09T14:04:57.721Z,100768.41
2023-05-09T14:07:34.035Z,100771.69
2023-05-09T14:10:14.187Z,100771.69
2023-05-09T14:12:52.605Z,100760.31
2023-05-09T14:15:23.369Z,100757.91
2023-05-09T14:17:54.415Z,100751.41
2023-05-09T14:20:22.825Z,100748.56
2023-05-09T14:22:59.961Z,100750.69
2023-05-09T14:25:34.182Z,100740.97
2023-05-09T14:28:09.543Z,100747.03
2023-05-09T14:30:37.682Z,100735.66
2023-05-09T14:33:13.267Z,100742.97
2023-05-09T14:35:49.906Z,100738.47
2023-05-09T14:38:21.358Z,100741.25
2023-05-09T14:40:51.600Z,100740.88
2023-05-09T14:43:22.583Z,100744.53
2023-05-09T14:45:57.400Z,100746.97
2023-05-09T14:48:28.527Z,100747.72
2023-05-09T14:51:04.453Z,100742.94
2023-05-09T14:53:39.906Z,100748.63
2023-05-09T14:56:22.685Z,100742.50
2023-05-09T14:58:56.459Z,100739.22
2023-05-09T15:01:27.109Z,100737.97
2023-05-09T15:04:06.224Z,100736.81
2023-05-09T15:11:50.387Z,100736.09
2023-05-09T15:27:02.531Z,100716.09
2023-05-09T15:29:30.357Z,100731.44
2023-05-09T15:32:01.167Z,100723.84
2023-05-09T15:34:29.090Z,100726.66
2023-05-09T15:36:57.521Z,100729.09
2023-05-09T15:39:28.067Z,100725.84
2023-05-09T15:42:07.244Z,100715.28
2023-05-09T15:44:47.457Z,100715.75
2023-05-09T15:47:18.287Z,100710.13
2023-05-09T15:49:53.640Z,100712.50
2023-05-09T15:52:29.436Z,100710.88
2023-05-09T15:55:01.916Z,100716.13
2023-05-09T15:57:38.297Z,100710.50
2023-05-09T16:00:10.201Z,100713.72
2023-05-09T16:02:44.285Z,100718.56
2023-05-09T16:05:20.472Z,100722.25
2023-05-09T16:07:53.914Z,100717.00
2023-05-09T16:10:21.890Z,100714.16
2023-05-09T16:12:59.966Z,100721.00
2023-05-09T16:15:33.427Z,100713.31
2023-05-09T16:18:09.380Z,100705.22
2023-05-09T16:20:39.772Z,100711.69
2023-05-09T16:23:07.730Z,100709.25
2023-05-09T16:25:38.956Z,100718.19
2023-05-09T16:28:08.596Z,100717.00
2023-05-09T16:30:38.813Z,100715.72
2023-05-09T16:33:09.258Z,100711.72
2023-05-09T16:35:42.921Z,100720.13
2023-05-09T16:38:16.783Z,100715.72
2023-05-09T16:40:45.354Z,100706.44
2023-05-09T16:43:19.583Z,100699.97
2023-05-09T16:45:50.694Z,100702.41
2023-05-09T16:48:27.001Z,100698.75
2023-05-09T16:51:00.154Z,100705.25
2023-05-09T16:53:28.242Z,100690.63
2023-05-09T16:56:02.778Z,100690.25
2023-05-09T16:58:34.936Z,100682.50
2023-05-09T17:01:06.744Z,100685.25
2023-05-09T17:03:39.610Z,100684.44
2023-05-09T17:06:12.663Z,100692.22
2023-05-09T17:08:42.659Z,100686.56
2023-05-09T17:11:10.057Z,100698.34
2023-05-09T17:13:42.837Z,100689.84
2023-05-09T17:16:10.231Z,100684.59
2023-05-09T17:18:40.319Z,100690.72
2023-05-09T17:21:07.995Z,100693.97
2023-05-09T17:23:39.922Z,100694.38
2023-05-09T17:26:10.193Z,100698.03
2023-05-09T17:28:37.711Z,100694.00
2023-05-09T17:31:05.169Z,100692.78
2023-05-09T17:33:35.669Z,100692.78
2023-05-09T17:36:03.754Z,100691.16
2023-05-09T17:38:31.774Z,100695.59
2023-05-09T17:40:59.901Z,100680.19
2023-05-09T17:43:31.023Z,100688.31
2023-05-09T17:46:07.962Z,100677.31
2023-05-09T17:48:35.380Z,100670.03
2023-05-09T17:51:05.410Z,100673.31
2023-05-09T17:53:32.866Z,100673.31
2023-05-09T17:56:02.796Z,100670.13
2023-05-09T17:58:30.278Z,100671.72
2023-05-09T18:00:59.630Z,100673.75
2023-05-09T18:03:35.695Z,100674.59
2023-05-09T18:06:04.551Z,100673.38
2023-05-09T18:08:31.903Z,100674.59
2023-05-09T18:11:02.433Z,100678.28
2023-05-09T18:13:33.232Z,100677.06
2023-05-09T18:16:03.082Z,100677.53
2023-05-09T18:18:32.383Z,100680.34
2023-05-09T18:21:04.822Z,100685.22
2023-05-09T18:23:32.167Z,100683.66
2023-05-09T18:25:59.615Z,100677.19
2023-05-09T18:28:27.684Z,100681.22
2023-05-09T18:30:56.708Z,100673.09
2023-05-09T18:33:30.233Z,100677.19
2023-05-09T18:36:00.561Z,100686.09
2023-05-09T18:38:27.965Z,100678.00
2023-05-09T18:40:59.459Z,100678.75
2023-05-09T18:43:28.958Z,100682.00
2023-05-09T18:45:59.136Z,100682.41
2023-05-09T18:48:26.589Z,100682.06
2023-05-09T18:50:53.972Z,100671.97
2023-05-09T18:53:26.268Z,100667.50
2023-05-09T18:55:56.930Z,100681.25
2023-05-09T18:58:28.888Z,100680.88
2023-05-09T19:00:59.137Z,100682.50
2023-05-09T19:03:29.592Z,100680.06
2023-05-09T19:06:00.781Z,100676.41
2023-05-09T19:08:29.207Z,100676.03
2023-05-09T19:11:02.518Z,100682.91
2023-05-09T19:13:37.041Z,100694.25
2023-05-09T19:16:08.312Z,100686.94
2023-05-09T19:18:35.870Z,100695.09
2023-05-09T19:21:03.787Z,100692.63
2023-05-09T19:23:33.670Z,100695.09
2023-05-09T19:26:06.951Z,100699.91
2023-05-09T19:28:37.207Z,100696.25
2023-05-09T19:31:09.858Z,100697.09
2023-05-09T19:33:40.222Z,100700.34
2023-05-09T19:36:13.958Z,100693.06
2023-05-09T19:38:44.081Z,100698.75
2023-05-09T19:41:14.282Z,100708.06
2023-05-09T19:43:44.050Z,100701.16
2023-05-09T19:46:11.588Z,100705.63
2023-05-09T19:48:44.178Z,100704.44
2023-05-09T19:51:14.159Z,100710.94
2023-05-09T19:53:46.857Z,100709.66
2023-05-09T19:56:14.411Z,100705.63
2023-05-09T19:58:41.913Z,100711.31
2023-05-09T20:01:09.728Z,100701.22
2023-05-09T20:03:42.235Z,100705.69
2023-05-09T20:06:09.870Z,100708.91
2023-05-09T20:08:40.354Z,100710.53
2023-05-09T20:11:12.674Z,100706.44
2023-05-09T20:13:40.132Z,100706.84
2023-05-09T20:16:11.221Z,100707.69
2023-05-09T20:18:41.591Z,100713.75
2023-05-09T20:21:11.651Z,100712.56
2023-05-09T20:23:42.188Z,100706.44
2023-05-09T20:26:11.037Z,100704.03
2023-05-09T20:28:38.476Z,100700.81
2023-05-09T20:31:08.036Z,100708.91
2023-05-09T20:33:35.495Z,100704.03
2023-05-09T20:36:06.788Z,100700.78
2023-05-09T20:38:34.164Z,100699.59
2023-05-09T20:41:01.772Z,100691.53
2023-05-09T20:43:30.658Z,100693.16
2023-05-09T20:46:03.832Z,100693.13
2023-05-09T20:48:33.618Z,100680.59
2023-05-09T20:51:01.065Z,100683.78
2023-05-09T20:53:35.310Z,100679.72
2023-05-09T20:56:05.289Z,100686.25
2023-05-09T20:58:35.229Z,100687.88
2023-05-09T21:01:06.448Z,100685.03
2023-05-09T21:03:34.052Z,100676.94
2023-05-09T21:06:04.321Z,100676.97
2023-05-09T21:08:34.694Z,100676.59
2023-05-09T21:11:07.588Z,100680.56
2023-05-09T21:13:40.770Z,100676.13
2023-05-09T21:16:11.028Z,100678.19
2023-05-09T21:18:38.390Z,100679.00
2023-05-09T21:21:09.209Z,100674.13
2023-05-09T21:23:42.125Z,100674.94
2023-05-09T21:26:13.365Z,100677.41
2023-05-09T21:28:43.604Z,100664.41
2023-05-09T21:31:11.573Z,100669.66
2023-05-09T21:33:41.846Z,100670.06
2023-05-09T21:36:11.984Z,100674.16
2023-05-09T21:38:39.392Z,100669.28
2023-05-09T21:41:10.177Z,100668.88
2023-05-09T21:43:41.340Z,100665.22
2023-05-09T21:46:12.380Z,100668.06
2023-05-09T21:48:40.412Z,100665.63
2023-05-09T21:51:12.392Z,100659.09
2023-05-09T21:53:43.530Z,100664.38
2023-05-09T21:56:13.231Z,100661.56
2023-05-09T21:58:43.037Z,100655.53
2023-05-09T22:01:13.263Z,100662.81
2023-05-09T22:03:46.213Z,100654.28
2023-05-09T22:06:13.852Z,100653.47
2023-05-09T22:08:43.976Z,100645.38
2023-05-09T22:11:14.861Z,100643.72
2023-05-09T22:13:43.530Z,100638.88
2023-05-09T22:16:11.019Z,100643.78
2023-05-09T22:18:41.337Z,100637.72
2023-05-09T22:21:11.671Z,100636.09
2023-05-09T22:23:39.021Z,100636.09
2023-05-09T22:26:07.335Z,100633.28
2023-05-09T22:28:36.988Z,100626.78
2023-05-09T22:31:07.557Z,100624.38
2023-05-09T22:33:35.032Z,100616.22
2023-05-09T22:36:05.035Z,100615.44
2023-05-09T22:38:35.255Z,100611.00
2023-05-09T22:41:02.613Z,100604.09
2023-05-09T22:43:39.244Z,100599.69
2023-05-09T22:46:10.324Z,100602.91
2023-05-09T22:48:37.788Z,100606.94
2023-05-09T22:51:10.603Z,100601.19
2023-05-09T22:53:44.376Z,100602.00
2023-05-09T22:56:17.687Z,100602.31
2023-05-09T22:58:50.905Z,100591.78
2023-05-09T23:01:18.341Z,100594.97
2023-05-09T23:03:49.442Z,100594.50
2023-05-09T23:06:16.909Z,100592.91
2023-05-09T23:08:44.328Z,100588.81
2023-05-09T23:11:14.400Z,100583.94
2023-05-09T23:13:45.356Z,100587.50
2023-05-09T23:16:12.894Z,100580.16
2023-05-09T23:18:45.423Z,100576.91
2023-05-09T23:21:15.425Z,100578.09
2023-05-09T23:23:45.793Z,100565.53
2023-05-09T23:26:16.111Z,100568.03
2023-05-09T23:28:43.364Z,100564.88
2023-05-09T23:31:16.239Z,100567.72
2023-05-09T23:33:46.356Z,100561.75
2023-05-09T23:36:16.538Z,100553.22
2023-05-09T23:38:43.972Z,100543.19
2023-05-09T23:41:14.469Z,100544.41
2023-05-09T23:43:46.945Z,100540.03
2023-05-09T23:46:14.388Z,100546.88
2023-05-09T23:48:45.713Z,100540.81
2023-05-09T23:51:13.096Z,100537.25
2023-05-09T23:53:42.963Z,100536.47
2023-05-09T23:56:13.017Z,100533.19
2023-05-09T23:58:43.366Z,100537.66
